GCGM

Details ICAO GCGM (GMZ)
Name La Gomera
Region Canary Islands
Timezone Atlantic/Canary (UTC+0.0)
Plans Departing 36
Arriving 49
Stats Elevation 715 ft / 218 m (AMSL)
Location 28.029627° -17.214603°
Runways 1
Magnetic Variation 5.358° W
Sunrise 2017-12-17 07:55:20 UTC / 2017-12-17 07:55:20 Local
Sunset 2017-12-17 18:17:24 UTC / 2017-12-17 18:17:24 Local
Advertisement - Login to hide

Runways

ID Width Length Bearing (true) Bearing (mag) Surface Threshold Offset Overrun Length
09 98 ft / 30 m 4,914 ft / 1,498 m 81.17° 86.53° Asphalt 0 ft / 0 m 0 ft / 0 m
27 98 ft / 30 m 4,914 ft / 1,498 m 261.18° 266.54° Asphalt 0 ft / 0 m 0 ft / 0 m

Map

Weather


0- 5 10 15 20 25 30 35+ Temperature / ° C

Clouds and Precipitation
Forecast for 2017-12-17 18:00 UTC. Updated 33 minutes ago

Ground ~20,000 ft ~40,000 ft Winds

METAR

GCGM 171730Z 03012G26KT 310V090 9999 FEW040 19/09 Q1022 RMK R09/VRB05KT ARP/05007G21KT 340V140

TAF

TAF AMD GCGM 171655Z 1716/1815 VRB10KT 9999 SCT030 TX23/1814Z TN18/1806Z PROB30 TEMPO 1716/1721 VRB15G25KT BECMG 1806/1808 32005KT BECMG 1810/1812 21010KT

Frequencies

Tower 118.40 MHz GCGM TWR
Approach 127.70 MHz GCGM APP
Warning: Do not use this data for real-world aviation or navigation. No guarantee of current accuracy is given.